sensor_id;sensor_type;location;lat;lon;timestamp;noise_LAeq;noise_LA_min;noise_LA_max;noise_LA01;noise_LA95
66335;Laerm;53138;51.496;6.410;2023-05-20T00:00:07;31.74;30.04;34.57;;
66335;Laerm;53138;51.496;6.410;2023-05-20T00:00:18;31.79;30.12;34.14;;
66335;Laerm;53138;51.496;6.410;2023-05-20T00:00:28;31.64;30.10;33.41;;
66335;Laerm;53138;51.496;6.410;2023-05-20T00:00:39;31.58;29.85;33.57;;
66335;Laerm;53138;51.496;6.410;2023-05-20T00:00:49;31.80;30.19;33.41;;
66335;Laerm;53138;51.496;6.410;2023-05-20T00:00:59;31.70;29.96;33.79;;
66335;Laerm;53138;51.496;6.410;2023-05-20T00:01:09;33.98;30.89;38.25;;
66335;Laerm;53138;51.496;6.410;2023-05-20T00:01:20;33.93;31.89;36.46;;
66335;Laerm;53138;51.496;6.410;2023-05-20T00:01:30;34.43;32.50;37.74;;
66335;Laerm;53138;51.496;6.410;2023-05-20T00:01:40;36.79;33.18;41.91;;
66335;Laerm;53138;51.496;6.410;2023-05-20T00:01:51;38.10;33.69;46.39;;
66335;Laerm;53138;51.496;6.410;2023-05-20T00:02:01;38.86;34.53;44.07;;
66335;Laerm;53138;51.496;6.410;2023-05-20T00:02:11;35.87;33.40;39.64;;
66335;Laerm;53138;51.496;6.410;2023-05-20T00:02:21;35.81;32.57;42.90;;
66335;Laerm;53138;51.496;6.410;2023-05-20T00:02:32;36.59;31.31;46.37;;
66335;Laerm;53138;51.496;6.410;2023-05-20T00:02:42;32.68;30.13;42.66;;
66335;Laerm;53138;51.496;6.410;2023-05-20T00:02:52;32.37;30.18;42.84;;
66335;Laerm;53138;51.496;6.410;2023-05-20T00:03:02;32.38;30.46;34.62;;
66335;Laerm;53138;51.496;6.410;2023-05-20T00:03:13;31.49;29.77;37.73;;
66335;Laerm;53138;51.496;6.410;2023-05-20T00:03:23;31.74;29.45;37.78;;
66335;Laerm;53138;51.496;6.410;2023-05-20T00:03:33;31.49;30.14;32.90;;
66335;Laerm;53138;51.496;6.410;2023-05-20T00:03:44;31.61;30.06;36.57;;
66335;Laerm;53138;51.496;6.410;2023-05-20T00:03:55;31.55;30.08;34.10;;
66335;Laerm;53138;51.496;6.410;2023-05-20T00:04:06;31.34;29.77;33.74;;
66335;Laerm;53138;51.496;6.410;2023-05-20T00:04:16;31.12;29.28;32.89;;
66335;Laerm;53138;51.496;6.410;2023-05-20T00:04:26;30.93;29.67;32.29;;
66335;Laerm;53138;51.496;6.410;2023-05-20T00:04:37;31.72;29.92;33.81;;
66335;Laerm;53138;51.496;6.410;2023-05-20T00:04:47;31.98;29.84;34.80;;
66335;Laerm;53138;51.496;6.410;2023-05-20T00:04:57;32.31;30.14;35.66;;
66335;Laerm;53138;51.496;6.410;2023-05-20T00:05:08;33.88;30.73;38.92;;
66335;Laerm;53138;51.496;6.410;2023-05-20T00:05:18;38.41;31.11;45.28;;
66335;Laerm;53138;51.496;6.410;2023-05-20T00:05:28;33.13;30.66;36.03;;
66335;Laerm;53138;51.496;6.410;2023-05-20T00:05:38;32.59;30.48;36.42;;
66335;Laerm;53138;51.496;6.410;2023-05-20T00:05:49;32.40;30.63;36.70;;
66335;Laerm;53138;51.496;6.410;2023-05-20T00:05:59;31.94;30.17;35.64;;
66335;Laerm;53138;51.496;6.410;2023-05-20T00:06:09;32.19;30.15;44.52;;
66335;Laerm;53138;51.496;6.410;2023-05-20T00:06:19;31.80;30.18;33.96;;
66335;Laerm;53138;51.496;6.410;2023-05-20T00:06:30;31.71;29.74;35.83;;
66335;Laerm;53138;51.496;6.410;2023-05-20T00:06:41;32.73;29.99;39.40;;
66335;Laerm;53138;51.496;6.410;2023-05-20T00:06:51;33.89;30.74;39.37;;
66335;Laerm;53138;51.496;6.410;2023-05-20T00:07:02;32.85;30.61;37.06;;
66335;Laerm;53138;51.496;6.410;2023-05-20T00:07:13;35.96;32.25;40.60;;
66335;Laerm;53138;51.496;6.410;2023-05-20T00:07:23;34.22;30.71;40.46;;
66335;Laerm;53138;51.496;6.410;2023-05-20T00:07:33;33.20;29.43;46.57;;
66335;Laerm;53138;51.496;6.410;2023-05-20T00:07:43;30.94;29.40;34.20;;
66335;Laerm;53138;51.496;6.410;2023-05-20T00:07:53;32.05;30.02;34.82;;
66335;Laerm;53138;51.496;6.410;2023-05-20T00:08:04;34.12;31.22;38.61;;
66335;Laerm;53138;51.496;6.410;2023-05-20T00:08:18;37.72;32.39;57.24;;
66335;Laerm;53138;51.496;6.410;2023-05-20T00:08:28;39.76;34.34;43.45;;
66335;Laerm;53138;51.496;6.410;2023-05-20T00:08:38;40.87;34.22;44.97;;
66335;Laerm;53138;51.496;6.410;2023-05-20T00:08:48;36.70;32.29;49.96;;
66335;Laerm;53138;51.496;6.410;2023-05-20T00:08:59;33.27;31.02;36.48;;
66335;Laerm;53138;51.496;6.410;2023-05-20T00:09:09;33.81;31.18;39.83;;
66335;Laerm;53138;51.496;6.410;2023-05-20T00:09:19;33.68;30.64;44.88;;
66335;Laerm;53138;51.496;6.410;2023-05-20T00:09:30;32.36;29.57;37.51;;
66335;Laerm;53138;51.496;6.410;2023-05-20T00:09:40;31.80;29.82;38.84;;
66335;Laerm;53138;51.496;6.410;2023-05-20T00:09:50;33.16;29.82;46.49;;
66335;Laerm;53138;51.496;6.410;2023-05-20T00:10:01;31.23;29.81;33.65;;
66335;Laerm;53138;51.496;6.410;2023-05-20T00:10:11;31.24;29.80;32.58;;
66335;Laerm;53138;51.496;6.410;2023-05-20T00:10:21;34.15;29.74;46.87;;
66335;Laerm;53138;51.496;6.410;2023-05-20T00:10:31;31.89;30.16;33.54;;
66335;Laerm;53138;51.496;6.410;2023-05-20T00:10:42;33.04;30.37;39.50;;
66335;Laerm;53138;51.496;6.410;2023-05-20T00:10:52;41.44;32.22;48.85;;
66335;Laerm;53138;51.496;6.410;2023-05-20T00:11:02;40.04;32.63;47.12;;
66335;Laerm;53138;51.496;6.410;2023-05-20T00:11:12;31.61;29.51;35.02;;
66335;Laerm;53138;51.496;6.410;2023-05-20T00:11:22;32.05;29.89;36.06;;
66335;Laerm;53138;51.496;6.410;2023-05-20T00:11:33;35.97;31.06;48.08;;
66335;Laerm;53138;51.496;6.410;2023-05-20T00:11:44;35.79;31.40;40.56;;
66335;Laerm;53138;51.496;6.410;2023-05-20T00:11:54;35.83;31.41;41.71;;
66335;Laerm;53138;51.496;6.410;2023-05-20T00:12:05;31.42;29.84;35.42;;
66335;Laerm;53138;51.496;6.410;2023-05-20T00:12:15;32.79;29.66;46.70;;
66335;Laerm;53138;51.496;6.410;2023-05-20T00:12:25;34.21;29.73;52.03;;
66335;Laerm;53138;51.496;6.410;2023-05-20T00:12:37;31.18;29.53;42.22;;
66335;Laerm;53138;51.496;6.410;2023-05-20T00:12:47;30.97;29.43;34.35;;
66335;Laerm;53138;51.496;6.410;2023-05-20T00:12:57;31.02;29.74;37.04;;
66335;Laerm;53138;51.496;6.410;2023-05-20T00:13:08;30.83;29.53;32.59;;
66335;Laerm;53138;51.496;6.410;2023-05-20T00:13:18;31.19;29.28;42.89;;
66335;Laerm;53138;51.496;6.410;2023-05-20T00:13:28;30.97;29.39;33.45;;
66335;Laerm;53138;51.496;6.410;2023-05-20T00:13:38;31.05;29.31;32.57;;
66335;Laerm;53138;51.496;6.410;2023-05-20T00:13:48;31.09;29.43;33.09;;
66335;Laerm;53138;51.496;6.410;2023-05-20T00:13:59;30.87;29.07;32.81;;
66335;Laerm;53138;51.496;6.410;2023-05-20T00:14:09;31.13;29.67;33.53;;
66335;Laerm;53138;51.496;6.410;2023-05-20T00:14:19;31.88;30.14;44.78;;
66335;Laerm;53138;51.496;6.410;2023-05-20T00:14:30;32.19;30.12;34.58;;
66335;Laerm;53138;51.496;6.410;2023-05-20T00:14:40;31.83;29.78;39.75;;
66335;Laerm;53138;51.496;6.410;2023-05-20T00:14:51;33.76;30.60;37.67;;
66335;Laerm;53138;51.496;6.410;2023-05-20T00:15:01;38.73;32.89;44.10;;
66335;Laerm;53138;51.496;6.410;2023-05-20T00:15:11;35.01;32.03;39.22;;
66335;Laerm;53138;51.496;6.410;2023-05-20T00:15:21;36.10;32.90;41.60;;
66335;Laerm;53138;51.496;6.410;2023-05-20T00:15:32;36.22;32.66;44.11;;
66335;Laerm;53138;51.496;6.410;2023-05-20T00:15:43;33.72;31.39;36.00;;
66335;Laerm;53138;51.496;6.410;2023-05-20T00:15:53;33.47;31.34;36.55;;
66335;Laerm;53138;51.496;6.410;2023-05-20T00:16:04;33.47;30.82;40.07;;
66335;Laerm;53138;51.496;6.410;2023-05-20T00:16:14;33.80;31.15;37.16;;
66335;Laerm;53138;51.496;6.410;2023-05-20T00:16:24;32.50;30.67;37.59;;
66335;Laerm;53138;51.496;6.410;2023-05-20T00:16:35;31.68;30.11;33.78;;
66335;Laerm;53138;51.496;6.410;2023-05-20T00:16:45;37.40;31.58;42.77;;
66335;Laerm;53138;51.496;6.410;2023-05-20T00:16:55;37.90;33.65;42.47;;
66335;Laerm;53138;51.496;6.410;2023-05-20T00:17:06;39.48;34.58;45.41;;
66335;Laerm;53138;51.496;6.410;2023-05-20T00:17:16;33.13;31.05;35.58;;
66335;Laerm;53138;51.496;6.410;2023-05-20T00:17:26;32.04;29.73;34.78;;
66335;Laerm;53138;51.496;6.410;2023-05-20T00:17:37;31.59;30.05;33.86;;
66335;Laerm;53138;51.496;6.410;2023-05-20T00:17:47;31.86;30.01;34.64;;
66335;Laerm;53138;51.496;6.410;2023-05-20T00:17:59;33.50;30.78;39.63;;
66335;Laerm;53138;51.496;6.410;2023-05-20T00:18:09;34.81;31.63;42.81;;
66335;Laerm;53138;51.496;6.410;2023-05-20T00:18:19;35.59;31.00;40.18;;
66335;Laerm;53138;51.496;6.410;2023-05-20T00:18:29;33.74;30.98;38.13;;
66335;Laerm;53138;51.496;6.410;2023-05-20T00:18:41;32.71;30.55;35.56;;
66335;Laerm;53138;51.496;6.410;2023-05-20T00:18:51;32.50;30.59;36.12;;
66335;Laerm;53138;51.496;6.410;2023-05-20T00:19:02;32.55;30.36;35.49;;
66335;Laerm;53138;51.496;6.410;2023-05-20T00:19:12;32.20;30.51;33.99;;
66335;Laerm;53138;51.496;6.410;2023-05-20T00:19:22;32.15;30.50;33.38;;
66335;Laerm;53138;51.496;6.410;2023-05-20T00:19:32;33.60;30.90;38.23;;
66335;Laerm;53138;51.496;6.410;2023-05-20T00:19:43;33.84;31.46;36.91;;
66335;Laerm;53138;51.496;6.410;2023-05-20T00:19:53;34.93;32.07;39.65;;
66335;Laerm;53138;51.496;6.410;2023-05-20T00:20:03;35.34;31.84;40.36;;
66335;Laerm;53138;51.496;6.410;2023-05-20T00:20:14;37.28;31.24;52.26;;
66335;Laerm;53138;51.496;6.410;2023-05-20T00:20:25;32.06;29.82;36.97;;
66335;Laerm;53138;51.496;6.410;2023-05-20T00:20:35;32.54;30.28;35.72;;
66335;Laerm;53138;51.496;6.410;2023-05-20T00:20:45;33.52;30.20;36.62;;
66335;Laerm;53138;51.496;6.410;2023-05-20T00:20:55;33.34;30.46;38.49;;
66335;Laerm;53138;51.496;6.410;2023-05-20T00:21:05;33.35;30.77;38.18;;
66335;Laerm;53138;51.496;6.410;2023-05-20T00:21:16;32.08;30.18;34.49;;
66335;Laerm;53138;51.496;6.410;2023-05-20T00:21:26;33.49;30.70;42.29;;
66335;Laerm;53138;51.496;6.410;2023-05-20T00:21:36;32.78;30.14;39.58;;
66335;Laerm;53138;51.496;6.410;2023-05-20T00:21:46;31.44;29.99;34.15;;
66335;Laerm;53138;51.496;6.410;2023-05-20T00:21:57;30.89;29.43;33.57;;
66335;Laerm;53138;51.496;6.410;2023-05-20T00:22:07;30.80;29.25;35.53;;
66335;Laerm;53138;51.496;6.410;2023-05-20T00:22:17;30.85;29.46;32.37;;
66335;Laerm;53138;51.496;6.410;2023-05-20T00:22:27;31.24;29.88;35.09;;
66335;Laerm;53138;51.496;6.410;2023-05-20T00:22:37;31.08;29.50;36.46;;
66335;Laerm;53138;51.496;6.410;2023-05-20T00:22:48;30.89;29.18;33.79;;
66335;Laerm;53138;51.496;6.410;2023-05-20T00:22:58;31.07;29.45;37.62;;
66335;Laerm;53138;51.496;6.410;2023-05-20T00:23:08;31.80;29.58;43.65;;
66335;Laerm;53138;51.496;6.410;2023-05-20T00:23:18;31.13;29.34;36.30;;
66335;Laerm;53138;51.496;6.410;2023-05-20T00:23:28;30.86;29.45;32.35;;
66335;Laerm;53138;51.496;6.410;2023-05-20T00:23:39;30.60;29.12;32.07;;
66335;Laerm;53138;51.496;6.410;2023-05-20T00:23:49;30.78;28.90;34.04;;
66335;Laerm;53138;51.496;6.410;2023-05-20T00:24:00;30.82;29.36;32.01;;
66335;Laerm;53138;51.496;6.410;2023-05-20T00:24:10;30.71;29.37;32.79;;
66335;Laerm;53138;51.496;6.410;2023-05-20T00:24:20;31.00;29.61;32.66;;
66335;Laerm;53138;51.496;6.410;2023-05-20T00:24:31;31.07;29.71;32.82;;
66335;Laerm;53138;51.496;6.410;2023-05-20T00:24:41;30.89;29.53;32.54;;
66335;Laerm;53138;51.496;6.410;2023-05-20T00:24:51;31.25;29.11;36.76;;
66335;Laerm;53138;51.496;6.410;2023-05-20T00:25:01;31.37;29.72;33.94;;
66335;Laerm;53138;51.496;6.410;2023-05-20T00:25:12;34.15;31.12;39.15;;
66335;Laerm;53138;51.496;6.410;2023-05-20T00:25:23;39.78;32.24;50.89;;
66335;Laerm;53138;51.496;6.410;2023-05-20T00:25:34;35.30;32.06;39.06;;
66335;Laerm;53138;51.496;6.410;2023-05-20T00:25:44;33.11;30.89;35.80;;
66335;Laerm;53138;51.496;6.410;2023-05-20T00:25:54;33.51;30.69;37.38;;
66335;Laerm;53138;51.496;6.410;2023-05-20T00:26:04;32.90;30.45;36.77;;
66335;Laerm;53138;51.496;6.410;2023-05-20T00:26:15;32.24;30.05;35.24;;
66335;Laerm;53138;51.496;6.410;2023-05-20T00:26:25;32.60;30.27;37.07;;
66335;Laerm;53138;51.496;6.410;2023-05-20T00:26:35;31.41;29.66;33.45;;
66335;Laerm;53138;51.496;6.410;2023-05-20T00:26:46;31.36;30.17;33.25;;
66335;Laerm;53138;51.496;6.410;2023-05-20T00:26:56;31.69;30.19;33.33;;
66335;Laerm;53138;51.496;6.410;2023-05-20T00:27:06;31.55;29.94;33.40;;
66335;Laerm;53138;51.496;6.410;2023-05-20T00:27:16;31.50;30.03;33.55;;
66335;Laerm;53138;51.496;6.410;2023-05-20T00:27:26;32.36;30.08;36.37;;
66335;Laerm;53138;51.496;6.410;2023-05-20T00:27:37;32.45;29.84;36.14;;
66335;Laerm;53138;51.496;6.410;2023-05-20T00:27:47;32.45;30.14;43.58;;
66335;Laerm;53138;51.496;6.410;2023-05-20T00:27:57;34.77;30.81;41.24;;
66335;Laerm;53138;51.496;6.410;2023-05-20T00:28:07;37.32;30.98;44.48;;
66335;Laerm;53138;51.496;6.410;2023-05-20T00:28:18;33.27;30.55;38.44;;
66335;Laerm;53138;51.496;6.410;2023-05-20T00:28:28;33.33;30.34;37.42;;
66335;Laerm;53138;51.496;6.410;2023-05-20T00:28:39;31.69;29.80;33.66;;
66335;Laerm;53138;51.496;6.410;2023-05-20T00:28:49;31.23;29.72;33.14;;
66335;Laerm;53138;51.496;6.410;2023-05-20T00:29:00;30.95;29.79;32.26;;
66335;Laerm;53138;51.496;6.410;2023-05-20T00:29:10;30.83;29.37;33.38;;
66335;Laerm;53138;51.496;6.410;2023-05-20T00:29:20;31.34;29.77;37.45;;
66335;Laerm;53138;51.496;6.410;2023-05-20T00:29:31;31.17;29.64;34.59;;
66335;Laerm;53138;51.496;6.410;2023-05-20T00:29:42;31.61;29.85;34.46;;
66335;Laerm;53138;51.496;6.410;2023-05-20T00:29:52;34.45;31.29;39.63;;
66335;Laerm;53138;51.496;6.410;2023-05-20T00:30:03;35.48;32.40;41.88;;
66335;Laerm;53138;51.496;6.410;2023-05-20T00:30:13;35.54;31.73;41.29;;
66335;Laerm;53138;51.496;6.410;2023-05-20T00:30:23;34.77;31.00;41.97;;
66335;Laerm;53138;51.496;6.410;2023-05-20T00:30:34;32.52;30.56;34.99;;
66335;Laerm;53138;51.496;6.410;2023-05-20T00:30:44;31.70;29.76;36.62;;
66335;Laerm;53138;51.496;6.410;2023-05-20T00:30:54;31.26;29.63;33.13;;
66335;Laerm;53138;51.496;6.410;2023-05-20T00:31:05;30.96;29.49;32.40;;
66335;Laerm;53138;51.496;6.410;2023-05-20T00:31:15;31.04;29.64;32.47;;
66335;Laerm;53138;51.496;6.410;2023-05-20T00:31:25;30.94;29.30;32.46;;
66335;Laerm;53138;51.496;6.410;2023-05-20T00:31:35;31.02;29.44;32.85;;
66335;Laerm;53138;51.496;6.410;2023-05-20T00:31:45;31.07;29.40;33.31;;
66335;Laerm;53138;51.496;6.410;2023-05-20T00:31:56;31.27;29.75;34.15;;
66335;Laerm;53138;51.496;6.410;2023-05-20T00:32:06;31.64;29.71;38.79;;
66335;Laerm;53138;51.496;6.410;2023-05-20T00:32:17;31.52;30.05;34.79;;
66335;Laerm;53138;51.496;6.410;2023-05-20T00:32:27;31.46;29.77;34.19;;
66335;Laerm;53138;51.496;6.410;2023-05-20T00:32:37;31.76;29.71;33.47;;
66335;Laerm;53138;51.496;6.410;2023-05-20T00:32:47;32.52;30.56;37.53;;
66335;Laerm;53138;51.496;6.410;2023-05-20T00:32:58;34.80;31.07;42.33;;
66335;Laerm;53138;51.496;6.410;2023-05-20T00:33:08;34.88;32.36;38.23;;
66335;Laerm;53138;51.496;6.410;2023-05-20T00:33:18;35.06;31.43;39.64;;
66335;Laerm;53138;51.496;6.410;2023-05-20T00:33:28;34.89;30.65;39.96;;
66335;Laerm;53138;51.496;6.410;2023-05-20T00:33:38;32.18;30.46;34.53;;
66335;Laerm;53138;51.496;6.410;2023-05-20T00:33:49;31.07;29.21;38.34;;
66335;Laerm;53138;51.496;6.410;2023-05-20T00:33:59;31.02;29.45;33.73;;
66335;Laerm;53138;51.496;6.410;2023-05-20T00:34:09;31.15;29.78;32.98;;
66335;Laerm;53138;51.496;6.410;2023-05-20T00:34:19;31.12;29.69;33.07;;
66335;Laerm;53138;51.496;6.410;2023-05-20T00:34:30;31.28;29.62;33.68;;
66335;Laerm;53138;51.496;6.410;2023-05-20T00:34:41;31.69;30.33;33.88;;
66335;Laerm;53138;51.496;6.410;2023-05-20T00:34:58;31.29;29.50;33.34;;
66335;Laerm;53138;51.496;6.410;2023-05-20T00:35:09;31.34;29.73;33.23;;
66335;Laerm;53138;51.496;6.410;2023-05-20T00:35:20;31.24;29.79;32.59;;
66335;Laerm;53138;51.496;6.410;2023-05-20T00:35:30;32.15;30.12;33.85;;
66335;Laerm;53138;51.496;6.410;2023-05-20T00:35:40;38.40;31.67;47.10;;
66335;Laerm;53138;51.496;6.410;2023-05-20T00:35:51;39.63;32.27;46.46;;
66335;Laerm;53138;51.496;6.410;2023-05-20T00:36:01;32.24;30.42;34.99;;
66335;Laerm;53138;51.496;6.410;2023-05-20T00:36:11;31.41;29.91;32.94;;
66335;Laerm;53138;51.496;6.410;2023-05-20T00:36:21;31.08;29.55;32.45;;
66335;Laerm;53138;51.496;6.410;2023-05-20T00:36:31;31.13;29.47;32.57;;
66335;Laerm;53138;51.496;6.410;2023-05-20T00:36:42;31.36;29.91;32.84;;
66335;Laerm;53138;51.496;6.410;2023-05-20T00:36:52;31.20;29.72;38.14;;
66335;Laerm;53138;51.496;6.410;2023-05-20T00:37:02;31.04;29.57;33.06;;
66335;Laerm;53138;51.496;6.410;2023-05-20T00:37:13;31.16;29.70;32.77;;
66335;Laerm;53138;51.496;6.410;2023-05-20T00:37:23;36.10;29.48;55.05;;
66335;Laerm;53138;51.496;6.410;2023-05-20T00:37:33;31.01;29.45;34.23;;
66335;Laerm;53138;51.496;6.410;2023-05-20T00:37:43;30.91;29.30;35.81;;
66335;Laerm;53138;51.496;6.410;2023-05-20T00:37:54;30.84;29.51;33.16;;
66335;Laerm;53138;51.496;6.410;2023-05-20T00:38:04;32.82;30.26;37.05;;
66335;Laerm;53138;51.496;6.410;2023-05-20T00:38:14;35.60;31.04;40.47;;
66335;Laerm;53138;51.496;6.410;2023-05-20T00:38:25;31.89;29.93;33.72;;
66335;Laerm;53138;51.496;6.410;2023-05-20T00:38:35;31.13;29.84;37.87;;
66335;Laerm;53138;51.496;6.410;2023-05-20T00:38:45;31.01;29.52;36.76;;
66335;Laerm;53138;51.496;6.410;2023-05-20T00:38:55;31.51;29.03;38.92;;
66335;Laerm;53138;51.496;6.410;2023-05-20T00:39:06;30.97;29.29;34.49;;
66335;Laerm;53138;51.496;6.410;2023-05-20T00:39:16;30.97;29.11;32.92;;
66335;Laerm;53138;51.496;6.410;2023-05-20T00:39:26;30.92;29.28;32.43;;
66335;Laerm;53138;51.496;6.410;2023-05-20T00:39:36;30.80;29.42;33.31;;
66335;Laerm;53138;51.496;6.410;2023-05-20T00:39:46;31.77;29.10;43.50;;
66335;Laerm;53138;51.496;6.410;2023-05-20T00:39:57;32.09;29.75;42.11;;
66335;Laerm;53138;51.496;6.410;2023-05-20T00:40:07;37.51;32.29;41.42;;
66335;Laerm;53138;51.496;6.410;2023-05-20T00:40:17;34.72;30.60;41.87;;
66335;Laerm;53138;51.496;6.410;2023-05-20T00:40:28;32.60;30.21;36.45;;
66335;Laerm;53138;51.496;6.410;2023-05-20T00:40:38;31.37;29.91;32.97;;
66335;Laerm;53138;51.496;6.410;2023-05-20T00:40:48;31.22;29.69;33.14;;
66335;Laerm;53138;51.496;6.410;2023-05-20T00:40:58;31.34;29.60;37.71;;
66335;Laerm;53138;51.496;6.410;2023-05-20T00:41:09;31.13;29.58;32.84;;
66335;Laerm;53138;51.496;6.410;2023-05-20T00:41:19;31.33;29.23;33.68;;
66335;Laerm;53138;51.496;6.410;2023-05-20T00:41:31;31.15;29.17;33.98;;
66335;Laerm;53138;51.496;6.410;2023-05-20T00:41:41;31.39;29.52;33.95;;
66335;Laerm;53138;51.496;6.410;2023-05-20T00:41:51;30.87;29.19;35.44;;
66335;Laerm;53138;51.496;6.410;2023-05-20T00:42:01;30.83;29.33;32.28;;
66335;Laerm;53138;51.496;6.410;2023-05-20T00:42:18;30.82;29.35;32.26;;
66335;Laerm;53138;51.496;6.410;2023-05-20T00:42:28;30.92;29.25;34.78;;
66335;Laerm;53138;51.496;6.410;2023-05-20T00:42:38;30.94;29.33;33.15;;
66335;Laerm;53138;51.496;6.410;2023-05-20T00:42:49;30.87;28.92;32.31;;
66335;Laerm;53138;51.496;6.410;2023-05-20T00:42:59;31.82;29.30;47.12;;
66335;Laerm;53138;51.496;6.410;2023-05-20T00:43:10;30.72;29.14;33.37;;
66335;Laerm;53138;51.496;6.410;2023-05-20T00:43:20;30.98;29.45;32.99;;
66335;Laerm;53138;51.496;6.410;2023-05-20T00:43:31;30.72;29.09;32.14;;
66335;Laerm;53138;51.496;6.410;2023-05-20T00:43:41;30.83;28.84;32.36;;
66335;Laerm;53138;51.496;6.410;2023-05-20T00:43:52;30.74;29.57;33.23;;
66335;Laerm;53138;51.496;6.410;2023-05-20T00:44:03;30.77;29.43;32.01;;
66335;Laerm;53138;51.496;6.410;2023-05-20T00:44:13;30.61;28.70;33.75;;
66335;Laerm;53138;51.496;6.410;2023-05-20T00:44:24;30.82;29.21;32.35;;
66335;Laerm;53138;51.496;6.410;2023-05-20T00:44:35;30.83;29.27;33.17;;
66335;Laerm;53138;51.496;6.410;2023-05-20T00:44:45;33.19;29.44;49.89;;
66335;Laerm;53138;51.496;6.410;2023-05-20T00:44:56;31.34;29.69;33.27;;
66335;Laerm;53138;51.496;6.410;2023-05-20T00:45:06;31.31;29.65;33.48;;
66335;Laerm;53138;51.496;6.410;2023-05-20T00:45:17;31.76;30.13;34.46;;
66335;Laerm;53138;51.496;6.410;2023-05-20T00:45:27;32.39;30.49;36.20;;
66335;Laerm;53138;51.496;6.410;2023-05-20T00:45:37;33.23;30.35;38.31;;
66335;Laerm;53138;51.496;6.410;2023-05-20T00:45:48;31.95;29.91;34.50;;
66335;Laerm;53138;51.496;6.410;2023-05-20T00:45:59;35.39;30.74;42.90;;
66335;Laerm;53138;51.496;6.410;2023-05-20T00:46:09;36.34;32.86;42.16;;
66335;Laerm;53138;51.496;6.410;2023-05-20T00:46:20;35.49;31.73;39.13;;
66335;Laerm;53138;51.496;6.410;2023-05-20T00:46:30;34.83;31.96;38.58;;
66335;Laerm;53138;51.496;6.410;2023-05-20T00:46:41;36.51;31.66;43.71;;
66335;Laerm;53138;51.496;6.410;2023-05-20T00:46:51;36.32;31.91;43.40;;
66335;Laerm;53138;51.496;6.410;2023-05-20T00:47:02;32.71;30.76;35.20;;
66335;Laerm;53138;51.496;6.410;2023-05-20T00:47:12;31.57;29.90;33.49;;
66335;Laerm;53138;51.496;6.410;2023-05-20T00:47:27;31.65;30.32;32.94;;
66335;Laerm;53138;51.496;6.410;2023-05-20T00:47:38;31.95;30.50;33.55;;
66335;Laerm;53138;51.496;6.410;2023-05-20T00:47:48;32.64;30.81;34.51;;
66335;Laerm;53138;51.496;6.410;2023-05-20T00:47:59;34.30;31.30;37.35;;
66335;Laerm;53138;51.496;6.410;2023-05-20T00:48:11;37.17;34.27;44.39;;
66335;Laerm;53138;51.496;6.410;2023-05-20T00:48:22;40.90;34.46;47.52;;
66335;Laerm;53138;51.496;6.410;2023-05-20T00:48:35;37.90;33.80;42.14;;
66335;Laerm;53138;51.496;6.410;2023-05-20T00:48:48;39.51;30.27;47.29;;
66335;Laerm;53138;51.496;6.410;2023-05-20T00:49:00;31.50;29.90;33.26;;
66335;Laerm;53138;51.496;6.410;2023-05-20T00:49:10;30.93;29.29;37.76;;
66335;Laerm;53138;51.496;6.410;2023-05-20T00:49:20;30.81;29.42;34.34;;
66335;Laerm;53138;51.496;6.410;2023-05-20T00:49:32;31.68;29.68;34.09;;
66335;Laerm;53138;51.496;6.410;2023-05-20T00:49:43;32.60;30.34;35.04;;
66335;Laerm;53138;51.496;6.410;2023-05-20T00:49:54;32.53;29.95;36.07;;
66335;Laerm;53138;51.496;6.410;2023-05-20T00:50:04;31.49;29.90;33.71;;
66335;Laerm;53138;51.496;6.410;2023-05-20T00:50:15;31.43;29.87;33.88;;
66335;Laerm;53138;51.496;6.410;2023-05-20T00:50:26;31.41;30.16;32.89;;
66335;Laerm;53138;51.496;6.410;2023-05-20T00:50:36;31.52;30.09;33.41;;
66335;Laerm;53138;51.496;6.410;2023-05-20T00:50:47;31.51;29.91;33.53;;
66335;Laerm;53138;51.496;6.410;2023-05-20T00:50:58;31.79;30.02;35.16;;
66335;Laerm;53138;51.496;6.410;2023-05-20T00:51:09;32.22;30.05;38.02;;
66335;Laerm;53138;51.496;6.410;2023-05-20T00:51:19;34.29;31.04;38.89;;
66335;Laerm;53138;51.496;6.410;2023-05-20T00:51:30;35.82;31.51;40.33;;
66335;Laerm;53138;51.496;6.410;2023-05-20T00:51:40;35.68;32.05;41.78;;
66335;Laerm;53138;51.496;6.410;2023-05-20T00:51:51;36.03;32.66;42.83;;
66335;Laerm;53138;51.496;6.410;2023-05-20T00:52:01;35.71;31.21;40.49;;
66335;Laerm;53138;51.496;6.410;2023-05-20T00:52:11;34.26;31.79;38.43;;
66335;Laerm;53138;51.496;6.410;2023-05-20T00:52:22;34.15;31.05;40.31;;
66335;Laerm;53138;51.496;6.410;2023-05-20T00:52:33;32.08;30.27;34.23;;
66335;Laerm;53138;51.496;6.410;2023-05-20T00:52:44;31.54;29.85;35.95;;
66335;Laerm;53138;51.496;6.410;2023-05-20T00:52:57;31.99;30.13;34.66;;
66335;Laerm;53138;51.496;6.410;2023-05-20T00:53:07;32.59;30.67;35.32;;
66335;Laerm;53138;51.496;6.410;2023-05-20T00:53:18;36.00;31.01;42.22;;
66335;Laerm;53138;51.496;6.410;2023-05-20T00:53:30;35.20;30.83;42.60;;
66335;Laerm;53138;51.496;6.410;2023-05-20T00:53:40;31.87;29.59;37.74;;
66335;Laerm;53138;51.496;6.410;2023-05-20T00:53:51;30.67;29.39;33.15;;
66335;Laerm;53138;51.496;6.410;2023-05-20T00:54:01;30.83;29.03;36.04;;
66335;Laerm;53138;51.496;6.410;2023-05-20T00:54:12;30.82;29.20;34.88;;
66335;Laerm;53138;51.496;6.410;2023-05-20T00:54:22;30.64;29.21;32.47;;
66335;Laerm;53138;51.496;6.410;2023-05-20T00:54:32;30.72;29.36;33.94;;
66335;Laerm;53138;51.496;6.410;2023-05-20T00:54:43;30.81;29.19;33.07;;
66335;Laerm;53138;51.496;6.410;2023-05-20T00:54:53;30.82;29.44;32.75;;
66335;Laerm;53138;51.496;6.410;2023-05-20T00:55:04;31.01;29.29;34.39;;
66335;Laerm;53138;51.496;6.410;2023-05-20T00:55:15;34.20;29.81;49.31;;
66335;Laerm;53138;51.496;6.410;2023-05-20T00:55:25;33.02;30.48;38.41;;
66335;Laerm;53138;51.496;6.410;2023-05-20T00:55:35;38.63;32.51;44.60;;
66335;Laerm;53138;51.496;6.410;2023-05-20T00:55:46;33.61;30.28;37.56;;
66335;Laerm;53138;51.496;6.410;2023-05-20T00:55:57;31.36;29.55;33.19;;
66335;Laerm;53138;51.496;6.410;2023-05-20T00:56:07;31.17;29.69;33.00;;
66335;Laerm;53138;51.496;6.410;2023-05-20T00:56:17;31.04;29.63;34.71;;
66335;Laerm;53138;51.496;6.410;2023-05-20T00:56:28;31.18;29.75;32.46;;
66335;Laerm;53138;51.496;6.410;2023-05-20T00:56:38;30.98;29.34;33.84;;
66335;Laerm;53138;51.496;6.410;2023-05-20T00:56:50;31.17;29.56;33.09;;
66335;Laerm;53138;51.496;6.410;2023-05-20T00:57:00;31.20;29.60;33.15;;
66335;Laerm;53138;51.496;6.410;2023-05-20T00:57:12;31.01;29.67;32.99;;
66335;Laerm;53138;51.496;6.410;2023-05-20T00:57:22;32.60;29.89;35.26;;
66335;Laerm;53138;51.496;6.410;2023-05-20T00:57:33;32.82;30.60;37.32;;
66335;Laerm;53138;51.496;6.410;2023-05-20T00:57:43;34.15;30.93;39.79;;
66335;Laerm;53138;51.496;6.410;2023-05-20T00:57:53;35.87;30.30;43.62;;
66335;Laerm;53138;51.496;6.410;2023-05-20T00:58:04;32.03;29.71;34.08;;
66335;Laerm;53138;51.496;6.410;2023-05-20T00:58:14;31.36;29.83;34.11;;
66335;Laerm;53138;51.496;6.410;2023-05-20T00:58:24;31.71;29.79;33.70;;
66335;Laerm;53138;51.496;6.410;2023-05-20T00:58:35;31.43;30.02;33.45;;
66335;Laerm;53138;51.496;6.410;2023-05-20T00:58:46;31.89;30.30;34.95;;